createdAt,value
2023-03-16T00:04:12.175Z,59.86
2023-03-16T00:09:14.997Z,59.51
2023-03-16T00:14:19.077Z,59.47
2023-03-16T00:19:22.861Z,59.37
2023-03-16T00:24:25.694Z,59.63
2023-03-16T00:29:29.795Z,59.91
2023-03-16T00:34:34.608Z,60.03
2023-03-16T00:39:37.346Z,60.06
2023-03-16T00:44:42.397Z,59.52
2023-03-16T00:49:45.557Z,59.93
2023-03-16T00:54:49.062Z,59.58
2023-03-16T00:59:53.618Z,59.58
2023-03-16T01:04:57.037Z,59.86
2023-03-16T01:10:01.656Z,59.96
2023-03-16T01:15:07.228Z,60.37
2023-03-16T01:20:14.386Z,60.65
2023-03-16T01:25:18.319Z,60.79
2023-03-16T01:30:22.483Z,61.00
2023-03-16T01:35:25.592Z,60.94
2023-03-16T01:40:28.846Z,61.04
2023-03-16T01:46:14.195Z,61.01
2023-03-16T01:51:24.220Z,61.21
2023-03-16T01:56:30.849Z,61.41
2023-03-16T02:01:36.089Z,61.43
2023-03-16T02:06:39.515Z,61.64
2023-03-16T02:11:42.920Z,61.92
2023-03-16T02:16:50.665Z,62.50
2023-03-16T02:21:59.666Z,62.62
2023-03-16T02:27:05.535Z,62.95
2023-03-16T02:32:13.943Z,63.25
2023-03-16T02:37:17.049Z,63.47
2023-03-16T02:42:22.826Z,63.04
2023-03-16T02:47:35.063Z,63.41
2023-03-16T02:52:39.243Z,63.14
2023-03-16T02:57:42.264Z,63.61
2023-03-16T03:02:52.464Z,63.69
2023-03-16T03:07:55.463Z,63.33
2023-03-16T03:12:58.775Z,63.18
2023-03-16T03:18:04.027Z,64.11
2023-03-16T03:23:08.016Z,63.98
2023-03-16T03:28:11.415Z,63.93
2023-03-16T03:33:15.738Z,63.83
2023-03-16T03:38:18.593Z,63.78
2023-03-16T03:43:22.215Z,63.48
2023-03-16T03:48:28.534Z,63.61
2023-03-16T03:53:33.076Z,63.41
2023-03-16T03:58:56.067Z,63.38
2023-03-16T04:04:18.873Z,63.01
2023-03-16T04:09:21.696Z,63.90
2023-03-16T04:14:24.954Z,63.70
2023-03-16T04:19:29.382Z,63.40
2023-03-16T04:24:34.482Z,63.46
2023-03-16T04:29:38.715Z,63.58
2023-03-16T04:34:43.751Z,63.69
2023-03-16T04:39:48.888Z,63.06
2023-03-16T04:44:51.836Z,63.25
2023-03-16T04:49:58.668Z,63.56
2023-03-16T04:55:01.679Z,63.42
2023-03-16T05:00:11.705Z,63.19
2023-03-16T05:05:23.124Z,63.15
2023-03-16T05:10:26.519Z,62.41
2023-03-16T05:15:29.507Z,62.61
2023-03-16T05:20:42.167Z,63.36
2023-03-16T05:25:47.112Z,63.06
2023-03-16T05:30:53.030Z,63.48
2023-03-16T05:36:03.021Z,63.64
2023-03-16T05:41:06.847Z,63.48
2023-03-16T05:46:30.156Z,63.63
2023-03-16T05:51:35.379Z,63.70
2023-03-16T05:56:40.914Z,63.34
2023-03-16T06:01:43.802Z,63.52
2023-03-16T06:06:48.942Z,63.31
2023-03-16T06:12:01.440Z,62.94
2023-03-16T06:17:05.548Z,63.10
2023-03-16T06:22:10.968Z,64.26
2023-03-16T06:27:14.949Z,63.26
2023-03-16T06:32:33.614Z,63.17
2023-03-16T06:37:38.059Z,63.19
2023-03-16T06:42:55.142Z,62.98
2023-03-16T06:47:58.075Z,62.90
2023-03-16T06:53:02.656Z,62.38
2023-03-16T06:58:07.948Z,61.24
2023-03-16T07:03:10.980Z,60.72
2023-03-16T07:08:18.176Z,59.89
2023-03-16T07:13:21.188Z,59.20
2023-03-16T07:18:25.963Z,58.04
2023-03-16T07:23:30.820Z,57.68
2023-03-16T07:28:39.462Z,57.13
2023-03-16T07:33:43.133Z,55.00
2023-03-16T07:38:51.688Z,54.64
2023-03-16T07:43:54.875Z,53.63
2023-03-16T07:49:00.273Z,53.55
2023-03-16T07:54:05.148Z,53.31
2023-03-16T07:59:10.656Z,52.99
2023-03-16T08:04:13.561Z,52.55
2023-03-16T08:09:17.866Z,52.34
2023-03-16T08:14:20.851Z,51.24
2023-03-16T08:19:42.664Z,51.39
2023-03-16T08:24:48.997Z,50.93
2023-03-16T08:29:53.869Z,50.85
2023-03-16T08:35:00.470Z,50.30
2023-03-16T08:40:06.391Z,48.66
2023-03-16T08:45:13.778Z,48.62
2023-03-16T08:50:19.617Z,47.68
2023-03-16T08:55:24.475Z,48.06
2023-03-16T09:00:28.733Z,47.43
2023-03-16T09:05:32.646Z,46.97
2023-03-16T09:10:38.031Z,46.14
2023-03-16T09:22:52.044Z,44.48
2023-03-16T09:27:56.185Z,44.05
2023-03-16T09:32:59.477Z,43.41
2023-03-16T09:38:06.874Z,43.25
2023-03-16T09:43:31.379Z,42.61
2023-03-16T09:48:36.800Z,42.13
2023-03-16T09:53:40.573Z,42.09
2023-03-16T09:58:45.689Z,41.37
2023-03-16T10:04:06.504Z,41.35
2023-03-16T10:09:25.242Z,41.25
2023-03-16T10:14:39.008Z,42.46
2023-03-16T10:19:47.986Z,40.85
2023-03-16T10:25:02.404Z,40.81
2023-03-16T10:30:19.659Z,40.79
2023-03-16T10:35:32.443Z,40.64
2023-03-16T10:40:38.450Z,40.73
2023-03-16T10:45:44.257Z,41.08
2023-03-16T10:50:51.917Z,41.15
2023-03-16T10:55:59.805Z,42.05
2023-03-16T11:01:03.931Z,41.00
2023-03-16T11:06:08.911Z,41.33
2023-03-16T11:11:15.633Z,40.44
2023-03-16T11:16:31.964Z,40.30
2023-03-16T11:21:44.766Z,39.74
2023-03-16T11:26:53.082Z,40.72
2023-03-16T11:32:01.015Z,39.41
2023-03-16T11:37:14.064Z,41.25
2023-03-16T11:42:29.799Z,41.70
2023-03-16T11:48:02.335Z,41.38
2023-03-16T11:53:14.366Z,41.98
2023-03-16T11:58:31.574Z,41.33
2023-03-16T12:03:57.026Z,41.85
2023-03-16T12:09:15.441Z,42.14
2023-03-16T12:14:24.302Z,42.64
2023-03-16T12:19:42.516Z,42.39
2023-03-16T12:24:47.029Z,42.53
2023-03-16T12:30:01.724Z,41.75
2023-03-16T12:35:19.463Z,41.62
2023-03-16T12:40:32.793Z,41.15
2023-03-16T12:45:41.897Z,40.92
2023-03-16T12:50:52.051Z,40.75
2023-03-16T12:55:56.524Z,39.36
2023-03-16T13:01:01.007Z,38.13
2023-03-16T13:06:05.624Z,37.37
2023-03-16T13:11:10.346Z,37.08
2023-03-16T13:16:27.120Z,38.17
2023-03-16T13:21:39.435Z,37.95
2023-03-16T13:26:47.372Z,37.92
2023-03-16T13:31:51.162Z,38.57
2023-03-16T13:36:57.980Z,39.05
2023-03-16T13:42:04.689Z,38.59
2023-03-16T13:47:08.516Z,38.62
2023-03-16T13:52:20.784Z,38.14
2023-03-16T13:57:26.885Z,37.97
2023-03-16T14:02:30.132Z,37.88
2023-03-16T14:07:38.734Z,37.90
2023-03-16T14:12:51.702Z,38.39
2023-03-16T14:18:16.370Z,37.88
2023-03-16T14:23:24.475Z,38.26
2023-03-16T14:28:32.367Z,37.95
2023-03-16T14:33:37.693Z,37.50
2023-03-16T14:38:43.679Z,37.53
2023-03-16T14:43:49.244Z,38.16
2023-03-16T14:48:53.404Z,36.96
2023-03-16T14:53:57.554Z,36.51
2023-03-16T14:59:00.540Z,36.10
2023-03-16T15:04:03.740Z,37.80
2023-03-16T15:09:08.737Z,39.86
2023-03-16T15:14:35.406Z,39.59
2023-03-16T15:19:38.121Z,39.04
2023-03-16T15:24:42.588Z,39.10
2023-03-16T15:29:45.353Z,39.75
2023-03-16T15:34:48.126Z,39.44
2023-03-16T15:39:52.346Z,39.75
2023-03-16T15:44:55.289Z,40.05
2023-03-16T15:49:58.064Z,39.13
2023-03-16T15:55:07.678Z,38.94
2023-03-16T16:00:27.177Z,38.53
2023-03-16T16:05:30.996Z,38.57
2023-03-16T16:10:35.682Z,39.00
2023-03-16T16:15:38.456Z,38.77
2023-03-16T16:20:41.282Z,39.06
2023-03-16T16:25:46.491Z,38.90
2023-03-16T16:30:49.894Z,39.12
2023-03-16T16:35:52.932Z,39.92
2023-03-16T16:41:01.345Z,40.42
2023-03-16T16:46:07.531Z,40.72
2023-03-16T16:51:18.151Z,40.94
2023-03-16T16:56:28.604Z,41.24
2023-03-16T17:01:34.536Z,41.41
2023-03-16T17:06:37.764Z,41.75
2023-03-16T17:11:43.386Z,42.03
2023-03-16T17:16:48.441Z,42.76
2023-03-16T17:21:52.184Z,43.31
2023-03-16T17:26:58.741Z,43.69
2023-03-16T17:32:03.571Z,44.27
2023-03-16T17:37:08.477Z,44.73
2023-03-16T17:42:15.858Z,45.41
2023-03-16T17:47:21.367Z,46.06
2023-03-16T17:52:26.853Z,45.79
2023-03-16T17:57:33.220Z,46.67
2023-03-16T18:02:41.130Z,46.70
2023-03-16T18:07:43.912Z,47.08
2023-03-16T18:12:50.642Z,47.37
2023-03-16T18:17:53.802Z,47.52
2023-03-16T18:22:57.107Z,48.02
2023-03-16T18:28:02.621Z,48.24
2023-03-16T18:33:07.766Z,48.59
2023-03-16T18:38:18.959Z,48.76
2023-03-16T18:43:24.521Z,48.93
2023-03-16T18:48:31.583Z,49.32
2023-03-16T18:53:34.373Z,49.48
2023-03-16T18:58:38.481Z,50.25
2023-03-16T19:03:45.023Z,49.62
2023-03-16T19:08:47.804Z,49.89
2023-03-16T19:13:54.666Z,50.10
2023-03-16T19:18:57.574Z,50.40
2023-03-16T19:24:04.121Z,50.89
2023-03-16T19:29:11.293Z,50.62
2023-03-16T19:34:17.635Z,51.69
2023-03-16T19:39:21.295Z,51.65
2023-03-16T19:44:28.277Z,52.11
2023-03-16T19:49:31.698Z,52.23
2023-03-16T19:54:35.049Z,52.10
2023-03-16T19:59:39.389Z,52.49
2023-03-16T20:04:42.289Z,52.77
2023-03-16T20:09:45.276Z,52.72
2023-03-16T20:14:51.203Z,52.64
2023-03-16T20:19:54.102Z,52.69
2023-03-16T20:24:57.967Z,53.07
2023-03-16T20:30:02.818Z,53.25
2023-03-16T20:35:14.594Z,53.05
2023-03-16T20:40:18.584Z,53.31
2023-03-16T20:45:25.739Z,53.11
2023-03-16T20:50:31.103Z,53.21
2023-03-16T20:55:34.141Z,53.40
2023-03-16T21:00:39.928Z,53.27
2023-03-16T21:05:42.705Z,53.18
2023-03-16T21:10:47.808Z,53.21
2023-03-16T21:15:53.022Z,53.10
2023-03-16T21:20:56.867Z,53.51
2023-03-16T21:26:03.689Z,53.64
2023-03-16T21:31:08.401Z,53.79
2023-03-16T21:36:15.769Z,53.62
2023-03-16T21:41:18.671Z,53.94
2023-03-16T21:46:24.624Z,53.95
2023-03-16T21:51:31.492Z,54.19
2023-03-16T21:56:34.288Z,54.13
2023-03-16T22:01:54.406Z,54.31
2023-03-16T22:07:01.372Z,53.99
2023-03-16T22:12:04.722Z,54.46
2023-03-16T22:17:20.160Z,53.61
2023-03-16T22:22:22.924Z,53.71
2023-03-16T22:27:26.306Z,53.69
2023-03-16T22:32:30.519Z,53.63
2023-03-16T22:37:33.829Z,53.95
2023-03-16T22:42:38.944Z,54.00
2023-03-16T22:47:43.106Z,54.73
2023-03-16T22:52:48.377Z,54.58
2023-03-16T22:57:54.688Z,54.79
2023-03-16T23:02:59.223Z,54.65
2023-03-16T23:08:03.489Z,54.38
2023-03-16T23:13:15.285Z,54.44
2023-03-16T23:18:21.957Z,54.44
2023-03-16T23:23:24.888Z,54.05
2023-03-16T23:28:27.780Z,54.26
2023-03-16T23:33:32.019Z,54.21
2023-03-16T23:38:34.807Z,53.90
2023-03-16T23:43:37.656Z,53.81
2023-03-16T23:48:45.867Z,53.83
2023-03-16T23:53:48.827Z,54.13
2023-03-16T23:58:52.054Z,55.46
